createdAt,value
2018-03-24T00:00:21.850Z,29.30
2018-03-24T00:02:49.002Z,35.42
2018-03-24T00:05:15.434Z,27.42
2018-03-24T00:07:41.833Z,28.02
2018-03-24T00:10:08.971Z,29.17
2018-03-24T00:12:35.398Z,28.95
2018-03-24T00:15:01.833Z,26.85
2018-03-24T00:17:28.207Z,29.40
2018-03-24T00:19:54.627Z,30.48
2018-03-24T00:22:21.795Z,31.55
2018-03-24T00:24:48.199Z,30.08
2018-03-24T00:27:14.586Z,28.67
2018-03-24T00:29:41.045Z,28.40
2018-03-24T00:32:07.432Z,29.55
2018-03-24T00:34:34.652Z,29.12
2018-03-24T00:37:01.049Z,26.23
2018-03-24T00:39:28.198Z,27.00
2018-03-24T00:41:54.586Z,27.27
2018-03-24T00:44:21.730Z,27.08
2018-03-24T00:46:49.752Z,28.83
2018-03-24T00:49:16.924Z,30.12
2018-03-24T00:51:44.093Z,29.37
2018-03-24T00:54:11.234Z,29.87
2018-03-24T00:56:37.724Z,29.15
2018-03-24T00:59:04.879Z,26.05
2018-03-24T01:01:32.091Z,31.62
2018-03-24T01:03:59.162Z,30.52
2018-03-24T01:06:25.599Z,29.20
2018-03-24T01:08:52.051Z,27.42
2018-03-24T01:11:19.228Z,29.02
2018-03-24T01:13:46.275Z,29.63
2018-03-24T01:16:13.430Z,26.42
2018-03-24T01:18:40.615Z,28.60
2018-03-24T01:21:07.031Z,29.40
2018-03-24T01:23:33.418Z,27.92
2018-03-24T01:26:01.298Z,27.27
2018-03-24T01:28:27.815Z,26.83
2018-03-24T01:30:54.261Z,28.40
2018-03-24T01:33:20.661Z,25.98
2018-03-24T01:35:47.103Z,27.17
2018-03-24T01:38:13.618Z,26.98
2018-03-24T01:40:40.747Z,28.65
2018-03-24T01:43:07.205Z,26.15
2018-03-24T01:45:33.615Z,32.08
2018-03-24T01:48:00.156Z,27.75
2018-03-24T01:50:27.329Z,28.02
2018-03-24T01:52:54.482Z,27.33
2018-03-24T01:55:20.897Z,26.42
2018-03-24T01:57:47.287Z,29.98
2018-03-24T02:00:13.709Z,26.87
2018-03-24T02:02:40.225Z,26.00
2018-03-24T02:05:07.375Z,25.10
2018-03-24T02:07:33.779Z,28.92
2018-03-24T02:10:00.296Z,26.60
2018-03-24T02:12:27.436Z,26.65
2018-03-24T02:14:53.848Z,27.80
2018-03-24T02:17:20.265Z,25.42
2018-03-24T02:19:47.540Z,28.87
2018-03-24T02:22:13.938Z,26.27
2018-03-24T02:27:35.572Z,24.20
2018-03-24T02:30:02.832Z,24.83
2018-03-24T02:32:30.574Z,23.65
2018-03-24T02:34:56.970Z,25.55
2018-03-24T02:37:23.374Z,23.02
2018-03-24T02:39:49.779Z,24.00
2018-03-24T02:42:16.942Z,25.05
2018-03-24T02:44:43.372Z,26.17
2018-03-24T02:47:09.758Z,24.83
2018-03-24T02:49:36.902Z,21.60
2018-03-24T02:52:03.321Z,24.80
2018-03-24T02:54:29.865Z,26.67
2018-03-24T02:56:57.019Z,25.12
2018-03-24T02:59:24.161Z,28.48
2018-03-24T03:01:50.597Z,25.23
2018-03-24T03:04:16.998Z,26.83
2018-03-24T03:06:43.393Z,26.23
2018-03-24T03:09:09.824Z,25.70
2018-03-24T03:11:36.992Z,23.80
2018-03-24T03:14:04.231Z,24.70
2018-03-24T03:16:30.661Z,27.05
2018-03-24T03:18:57.190Z,23.33
2018-03-24T03:21:23.729Z,26.35
2018-03-24T03:23:50.901Z,25.65
2018-03-24T03:26:17.338Z,24.33
2018-03-24T03:28:43.753Z,26.30
2018-03-24T03:31:24.203Z,23.27
2018-03-24T03:33:50.757Z,24.30
2018-03-24T03:36:17.194Z,24.25
2018-03-24T03:38:44.385Z,26.48
2018-03-24T03:41:10.789Z,25.48
2018-03-24T03:43:37.191Z,26.17
2018-03-24T03:46:04.427Z,27.48
2018-03-24T03:48:30.850Z,26.40
2018-03-24T03:50:57.275Z,25.33
2018-03-24T03:53:23.699Z,25.95
2018-03-24T03:55:51.732Z,20.70
2018-03-24T03:58:18.122Z,28.20
2018-03-24T04:00:44.543Z,23.27
2018-03-24T04:03:10.976Z,23.20
2018-03-24T04:05:37.455Z,23.48
2018-03-24T04:08:03.922Z,24.70
2018-03-24T04:10:30.336Z,22.25
2018-03-24T04:12:56.784Z,23.08
2018-03-24T04:15:23.247Z,21.80
2018-03-24T04:17:49.655Z,27.45
2018-03-24T04:20:16.069Z,24.80
2018-03-24T04:22:42.467Z,22.40
2018-03-24T04:25:08.889Z,23.42
2018-03-24T04:27:36.047Z,26.75
2018-03-24T04:30:02.523Z,25.60
2018-03-24T04:32:29.691Z,21.45
2018-03-24T04:34:56.087Z,23.23
2018-03-24T04:37:22.498Z,24.17
2018-03-24T04:39:49.653Z,22.00
2018-03-24T04:42:16.067Z,21.75
2018-03-24T04:44:42.477Z,24.02
2018-03-24T04:47:09.621Z,23.42
2018-03-24T04:49:36.116Z,23.42
2018-03-24T04:52:03.392Z,22.95
2018-03-24T04:54:30.570Z,21.85
2018-03-24T04:56:56.972Z,23.98
2018-03-24T04:59:23.367Z,22.52
2018-03-24T05:01:50.526Z,24.33
2018-03-24T05:04:17.701Z,22.10
2018-03-24T05:06:44.849Z,20.17
2018-03-24T05:09:11.373Z,20.85
2018-03-24T05:11:37.857Z,20.08
2018-03-24T05:14:04.371Z,19.65
2018-03-24T05:16:30.779Z,21.15
2018-03-24T05:18:57.793Z,20.98
2018-03-24T05:21:24.215Z,20.73
2018-03-24T05:23:50.629Z,23.40
2018-03-24T05:26:17.092Z,21.65
2018-03-24T05:28:43.613Z,22.08
2018-03-24T05:31:10.807Z,25.37
2018-03-24T05:33:37.247Z,26.45
2018-03-24T05:36:03.740Z,30.35
2018-03-24T05:38:30.461Z,21.85
2018-03-24T05:40:57.622Z,21.17
2018-03-24T05:43:24.782Z,20.33
2018-03-24T05:45:51.208Z,19.17
2018-03-24T05:48:17.628Z,19.42
2018-03-24T05:50:44.088Z,20.60
2018-03-24T05:53:10.628Z,22.02
2018-03-24T05:55:37.772Z,17.48
2018-03-24T05:58:04.984Z,16.58
2018-03-24T06:00:31.473Z,15.70
2018-03-24T06:02:57.888Z,15.43
2018-03-24T06:05:24.341Z,15.82
2018-03-24T06:07:51.501Z,15.50
2018-03-24T06:10:18.649Z,13.45
2018-03-24T06:12:45.135Z,15.10
2018-03-24T06:15:12.420Z,13.43
2018-03-24T06:17:38.854Z,13.73
2018-03-24T06:20:05.251Z,14.00
2018-03-24T06:22:31.721Z,13.62
2018-03-24T06:24:58.114Z,15.18
2018-03-24T06:27:24.596Z,14.35
2018-03-24T06:29:51.855Z,13.80
2018-03-24T06:32:19.144Z,14.05
2018-03-24T06:34:46.434Z,13.35
2018-03-24T06:37:12.912Z,14.65
2018-03-24T06:39:39.337Z,19.08
2018-03-24T06:42:05.788Z,17.70
2018-03-24T06:44:32.955Z,20.20
2018-03-24T06:47:00.162Z,19.70
2018-03-24T06:49:26.693Z,18.27
2018-03-24T06:51:53.138Z,17.40
2018-03-24T06:54:19.582Z,19.73
2018-03-24T06:56:46.833Z,18.70
2018-03-24T06:59:13.443Z,19.33
2018-03-24T07:01:39.996Z,20.67
2018-03-24T07:04:06.554Z,19.60
2018-03-24T07:06:32.967Z,19.77
2018-03-24T07:09:00.128Z,20.27
2018-03-24T07:11:26.561Z,19.40
2018-03-24T07:13:52.975Z,20.53
2018-03-24T07:16:20.045Z,24.20
2018-03-24T07:18:46.723Z,20.90
2018-03-24T07:21:13.955Z,21.73
2018-03-24T07:23:40.454Z,23.20
2018-03-24T07:26:07.650Z,24.70
2018-03-24T07:28:34.091Z,22.97
2018-03-24T07:31:01.108Z,23.67
2018-03-24T07:33:27.611Z,24.40
2018-03-24T07:35:55.088Z,23.30
2018-03-24T07:38:22.270Z,23.63
2018-03-24T07:40:48.925Z,23.57
2018-03-24T07:43:15.426Z,23.10
2018-03-24T07:45:41.935Z,21.47
2018-03-24T07:48:09.218Z,23.80
2018-03-24T07:50:35.710Z,23.83
2018-03-24T07:53:02.225Z,22.80
2018-03-24T07:55:30.091Z,24.87
2018-03-24T07:57:56.544Z,24.43
2018-03-24T08:00:23.133Z,22.97
2018-03-24T08:02:50.292Z,23.40
2018-03-24T08:05:18.398Z,26.60
2018-03-24T08:07:44.812Z,22.70
2018-03-24T08:10:11.308Z,24.47
2018-03-24T08:12:38.465Z,22.90
2018-03-24T08:15:05.622Z,22.13
2018-03-24T08:17:32.207Z,23.60
2018-03-24T08:19:59.378Z,22.43
2018-03-24T08:22:26.558Z,22.00
2018-03-24T08:24:53.928Z,20.33
2018-03-24T08:27:21.852Z,19.27
2018-03-24T08:29:48.385Z,19.10
2018-03-24T08:32:14.760Z,18.10
2018-03-24T08:34:41.225Z,20.37
2018-03-24T08:37:07.679Z,19.17
2018-03-24T08:39:34.147Z,19.53
2018-03-24T08:42:00.990Z,19.47
2018-03-24T08:44:27.511Z,18.07
2018-03-24T08:46:54.901Z,17.03
2018-03-24T08:49:21.461Z,16.77
2018-03-24T08:51:48.645Z,17.63
2018-03-24T08:54:15.109Z,16.50
2018-03-24T08:56:41.709Z,14.60
2018-03-24T08:59:08.891Z,14.80
2018-03-24T09:01:35.327Z,12.93
2018-03-24T09:04:02.651Z,12.87
2018-03-24T09:06:29.924Z,11.93
2018-03-24T09:08:57.146Z,14.13
2018-03-24T09:11:23.659Z,11.90
2018-03-24T09:13:50.078Z,11.50
2018-03-24T09:16:16.570Z,12.37
2018-03-24T09:18:43.847Z,11.50
2018-03-24T09:21:11.028Z,10.73
2018-03-24T09:23:37.795Z,12.40
2018-03-24T09:26:04.296Z,12.73
2018-03-24T09:28:30.726Z,12.70
2018-03-24T09:30:57.190Z,12.50
2018-03-24T09:33:24.013Z,12.43
2018-03-24T09:35:50.463Z,12.00
2018-03-24T09:38:17.929Z,12.27
2018-03-24T09:40:45.223Z,13.35
2018-03-24T09:43:12.923Z,15.32
2018-03-24T09:45:39.342Z,20.90
2018-03-24T09:48:06.537Z,12.73
2018-03-24T09:50:33.757Z,12.65
2018-03-24T09:53:00.181Z,14.85
2018-03-24T09:55:26.723Z,13.48
2018-03-24T09:57:53.889Z,13.48
2018-03-24T10:00:21.065Z,15.15
2018-03-24T10:02:48.255Z,17.90
2018-03-24T10:05:14.739Z,15.63
2018-03-24T10:07:42.236Z,13.77
2018-03-24T10:10:08.678Z,14.90
2018-03-24T10:12:35.189Z,16.25
2018-03-24T10:15:02.475Z,17.08
2018-03-24T10:17:28.902Z,15.02
2018-03-24T10:19:55.310Z,15.45
2018-03-24T10:22:43.482Z,13.80
2018-03-24T10:25:09.920Z,13.98
2018-03-24T10:27:36.363Z,14.45
2018-03-24T10:30:02.902Z,14.87
2018-03-24T10:32:33.959Z,14.30
2018-03-24T10:35:05.434Z,14.18
2018-03-24T10:37:31.907Z,15.75
2018-03-24T10:39:58.397Z,14.87
2018-03-24T10:42:25.243Z,15.77
2018-03-24T10:44:59.825Z,15.38
2018-03-24T10:47:26.281Z,14.73
2018-03-24T10:49:54.145Z,16.02
2018-03-24T10:52:22.180Z,15.45
2018-03-24T10:54:48.741Z,18.37
2018-03-24T10:57:15.455Z,16.12
2018-03-24T10:59:42.612Z,16.12
2018-03-24T11:02:09.216Z,14.05
2018-03-24T11:04:36.896Z,15.13
2018-03-24T11:07:04.076Z,16.50
2018-03-24T11:09:30.998Z,15.90
2018-03-24T11:11:57.472Z,19.35
2018-03-24T11:14:24.766Z,21.30
2018-03-24T11:16:52.043Z,17.70
2018-03-24T11:19:18.447Z,15.05
2018-03-24T11:21:44.872Z,18.98
2018-03-24T11:24:12.301Z,16.65
2018-03-24T11:26:38.717Z,16.50
2018-03-24T11:29:05.345Z,15.63
2018-03-24T11:31:32.517Z,16.95
2018-03-24T11:34:00.255Z,17.37
2018-03-24T11:36:27.538Z,17.17
2018-03-24T11:38:57.239Z,16.37
2018-03-24T11:41:23.802Z,14.87
2018-03-24T11:43:51.556Z,15.80
2018-03-24T11:46:18.236Z,17.55
2018-03-24T11:48:44.643Z,17.33
2018-03-24T11:51:11.052Z,21.17
2018-03-24T11:53:44.716Z,16.65
2018-03-24T11:56:12.255Z,19.45
2018-03-24T11:58:38.924Z,20.35
2018-03-24T12:01:05.700Z,19.17
2018-03-24T12:03:32.916Z,20.05
2018-03-24T12:06:01.457Z,19.73
2018-03-24T12:08:30.520Z,18.75
2018-03-24T12:10:57.423Z,21.30
2018-03-24T12:13:24.291Z,24.37
2018-03-24T12:15:50.825Z,21.58
2018-03-24T12:18:18.329Z,23.00
2018-03-24T12:20:44.861Z,24.92
2018-03-24T12:23:11.519Z,22.67
2018-03-24T12:25:38.961Z,20.55
2018-03-24T12:28:06.278Z,22.52
2018-03-24T12:30:33.186Z,23.65
2018-03-24T12:32:59.787Z,22.02
2018-03-24T12:35:28.756Z,18.15
2018-03-24T12:37:55.170Z,23.50
2018-03-24T12:40:21.661Z,21.62
2018-03-24T12:42:48.182Z,22.05
2018-03-24T12:45:14.743Z,22.83
2018-03-24T12:47:41.582Z,21.12
2018-03-24T12:50:09.110Z,23.65
2018-03-24T12:52:35.956Z,26.02
2018-03-24T12:55:03.202Z,26.33
2018-03-24T12:57:30.992Z,26.60
2018-03-24T12:59:58.291Z,26.42
2018-03-24T13:02:24.926Z,30.60
2018-03-24T13:04:52.215Z,27.55
2018-03-24T13:07:19.536Z,35.08
2018-03-24T13:09:47.189Z,30.12
2018-03-24T13:12:14.971Z,30.25
2018-03-24T13:14:41.451Z,33.15
2018-03-24T13:17:07.880Z,31.50
2018-03-24T13:19:34.486Z,45.55
2018-03-24T13:22:00.993Z,31.92
2018-03-24T13:24:27.484Z,29.67
2018-03-24T13:26:54.822Z,33.20
2018-03-24T13:29:22.966Z,29.25
2018-03-24T13:31:49.785Z,32.13
2018-03-24T13:34:16.754Z,29.30
2018-03-24T13:36:43.652Z,32.35
2018-03-24T13:39:10.084Z,30.35
2018-03-24T13:41:38.321Z,30.52
2018-03-24T13:44:04.969Z,32.55
2018-03-24T13:46:31.700Z,31.70
2018-03-24T13:48:58.460Z,32.25
2018-03-24T13:51:26.105Z,34.60
2018-03-24T13:53:53.428Z,28.73
2018-03-24T13:56:20.428Z,29.48
2018-03-24T13:58:47.072Z,29.48
2018-03-24T14:01:14.700Z,32.67
2018-03-24T14:03:42.158Z,32.90
2018-03-24T14:06:09.070Z,33.25
2018-03-24T14:08:36.491Z,30.75
2018-03-24T14:11:08.911Z,35.40
2018-03-24T14:13:37.645Z,35.88
2018-03-24T14:16:05.126Z,35.83
2018-03-24T14:18:31.568Z,37.30
2018-03-24T14:20:58.764Z,39.72
2018-03-24T14:23:25.822Z,37.05
2018-03-24T14:25:52.772Z,35.47
2018-03-24T14:28:20.373Z,37.13
2018-03-24T14:30:47.234Z,39.58
2018-03-24T14:33:14.720Z,38.40
2018-03-24T14:35:41.275Z,38.10
2018-03-24T14:38:09.199Z,39.13
2018-03-24T14:40:36.883Z,36.60
2018-03-24T14:43:03.840Z,34.90
2018-03-24T14:45:30.683Z,32.83
2018-03-24T14:47:58.340Z,37.63
2018-03-24T14:50:24.985Z,35.92
2018-03-24T14:52:52.163Z,38.08
2018-03-24T14:55:23.081Z,36.92
2018-03-24T14:57:50.635Z,38.67
2018-03-24T15:00:17.204Z,34.15
2018-03-24T15:02:44.182Z,36.13
2018-03-24T15:05:10.785Z,38.20
2018-03-24T15:07:37.229Z,34.53
2018-03-24T15:10:04.039Z,32.95
2018-03-24T15:12:31.628Z,33.85
2018-03-24T15:15:02.021Z,34.33
2018-03-24T15:17:30.373Z,30.67
2018-03-24T15:19:56.920Z,32.47
2018-03-24T15:22:25.415Z,32.88
2018-03-24T15:24:51.944Z,34.55
2018-03-24T15:27:19.147Z,36.20
2018-03-24T15:29:58.701Z,33.45
2018-03-24T15:32:40.816Z,33.20
2018-03-24T15:35:21.588Z,34.75
2018-03-24T15:37:51.513Z,33.22
2018-03-24T15:40:19.807Z,34.28
2018-03-24T15:42:47.513Z,32.13
2018-03-24T15:45:13.961Z,33.92
2018-03-24T15:47:41.328Z,30.80
2018-03-24T15:50:07.840Z,32.70
2018-03-24T15:52:34.314Z,37.33
2018-03-24T15:55:00.899Z,33.92
2018-03-24T15:57:28.218Z,31.77
2018-03-24T15:59:54.654Z,29.92
2018-03-24T16:02:21.784Z,29.02
2018-03-24T16:04:48.938Z,28.67
2018-03-24T16:07:15.492Z,29.42
2018-03-24T16:09:42.706Z,31.10
2018-03-24T16:12:09.243Z,28.85
2018-03-24T16:14:36.539Z,28.98
2018-03-24T16:17:03.025Z,26.83
2018-03-24T16:19:29.502Z,31.70
2018-03-24T16:21:56.117Z,26.92
2018-03-24T16:24:22.610Z,33.67
2018-03-24T16:26:49.040Z,31.05
2018-03-24T16:29:15.586Z,30.92
2018-03-24T16:31:44.123Z,31.52
2018-03-24T16:34:11.382Z,31.37
2018-03-24T16:36:37.816Z,43.42
2018-03-24T16:39:05.093Z,32.38
2018-03-24T16:41:31.649Z,36.63
2018-03-24T16:43:58.073Z,84.25
2018-03-24T16:46:24.549Z,42.13
2018-03-24T16:48:51.719Z,54.97
2018-03-24T16:51:19.009Z,45.40
2018-03-24T16:53:46.191Z,50.53
2018-03-24T16:56:12.636Z,40.03
2018-03-24T16:58:39.065Z,31.35
2018-03-24T17:01:06.283Z,29.35
2018-03-24T17:03:32.839Z,30.55
2018-03-24T17:05:59.291Z,25.80
2018-03-24T17:08:25.742Z,26.20
2018-03-24T17:10:52.178Z,21.85
2018-03-24T17:13:19.337Z,24.35
2018-03-24T17:15:45.792Z,33.38
2018-03-24T17:18:12.384Z,25.83
2018-03-24T17:20:38.850Z,25.20
2018-03-24T17:23:05.398Z,26.40
2018-03-24T17:25:32.669Z,26.08
2018-03-24T17:27:59.850Z,29.87
2018-03-24T17:30:26.996Z,25.08
2018-03-24T17:32:54.186Z,24.60
2018-03-24T17:35:21.564Z,26.50
2018-03-24T17:37:49.970Z,26.85
2018-03-24T17:40:16.523Z,42.92
2018-03-24T17:42:43.724Z,52.95
2018-03-24T17:45:10.254Z,40.65
2018-03-24T17:47:36.812Z,27.67
2018-03-24T17:50:03.372Z,31.48
2018-03-24T17:52:29.869Z,28.12
2018-03-24T17:54:56.383Z,31.70
2018-03-24T17:57:23.613Z,30.37
2018-03-24T17:59:50.523Z,26.12
2018-03-24T18:02:18.104Z,30.83
2018-03-24T18:04:45.378Z,28.40
2018-03-24T18:07:11.841Z,28.75
2018-03-24T18:09:38.403Z,28.40
2018-03-24T18:12:04.950Z,27.58
2018-03-24T18:14:32.101Z,27.92
2018-03-24T18:16:58.521Z,41.05
2018-03-24T18:19:24.989Z,42.58
2018-03-24T18:21:52.160Z,45.85
2018-03-24T18:24:18.652Z,35.28
2018-03-24T18:26:45.813Z,33.63
2018-03-24T18:29:12.400Z,31.58
2018-03-24T18:31:39.610Z,25.80
2018-03-24T18:34:06.577Z,28.42
2018-03-24T18:36:33.050Z,27.20
2018-03-24T18:38:59.448Z,29.98
2018-03-24T18:41:26.655Z,33.03
2018-03-24T18:43:53.157Z,27.20
2018-03-24T18:46:19.607Z,28.70
2018-03-24T18:48:46.038Z,27.95
2018-03-24T18:51:12.838Z,24.60
2018-03-24T18:53:39.865Z,28.85
2018-03-24T18:56:06.482Z,24.23
2018-03-24T18:58:33.348Z,27.27
2018-03-24T19:00:59.780Z,26.90
2018-03-24T19:03:27.697Z,30.48
2018-03-24T19:05:54.258Z,27.00
2018-03-24T19:08:21.218Z,29.05
2018-03-24T19:10:47.678Z,25.67
2018-03-24T19:13:14.951Z,27.58
2018-03-24T19:15:42.200Z,30.88
2018-03-24T19:18:08.786Z,29.63
2018-03-24T19:20:35.554Z,28.92
2018-03-24T19:23:02.311Z,26.30
2018-03-24T19:25:28.951Z,28.90
2018-03-24T19:27:55.376Z,29.40
2018-03-24T19:30:21.814Z,32.45
2018-03-24T19:32:48.341Z,30.23
2018-03-24T19:35:15.075Z,30.77
2018-03-24T19:37:41.620Z,29.70
2018-03-24T19:40:08.119Z,30.35
2018-03-24T19:42:34.614Z,27.95
2018-03-24T19:45:01.000Z,30.05
2018-03-24T19:47:27.466Z,35.45
2018-03-24T19:49:54.758Z,27.13
2018-03-24T19:52:22.084Z,29.75
2018-03-24T19:54:48.531Z,30.23
2018-03-24T19:57:15.954Z,32.72
2018-03-24T19:59:43.173Z,30.58
2018-03-24T20:02:09.683Z,30.60
2018-03-24T20:04:38.029Z,28.38
2018-03-24T20:07:04.749Z,29.70
2018-03-24T20:09:32.037Z,29.98
2018-03-24T20:11:59.260Z,34.45
2018-03-24T20:14:25.735Z,31.42
2018-03-24T20:16:53.244Z,31.70
2018-03-24T20:19:20.523Z,31.95
2018-03-24T20:21:47.004Z,32.53
2018-03-24T20:24:13.944Z,28.65
2018-03-24T20:26:40.507Z,29.42
2018-03-24T20:29:06.971Z,34.45
2018-03-24T20:31:33.479Z,32.55
2018-03-24T20:33:59.909Z,31.33
2018-03-24T20:36:26.427Z,32.03
2018-03-24T20:38:53.704Z,34.38
2018-03-24T20:41:20.942Z,30.67
2018-03-24T20:43:47.445Z,35.80
2018-03-24T20:46:13.994Z,31.40
2018-03-24T20:48:41.163Z,33.75
2018-03-24T20:51:08.351Z,35.92
2018-03-24T20:53:35.000Z,35.90
2018-03-24T20:56:02.480Z,36.20
2018-03-24T20:58:31.187Z,32.92
2018-03-24T21:00:58.078Z,35.72
2018-03-24T21:03:24.782Z,35.00
2018-03-24T21:05:51.678Z,36.53
2018-03-24T21:08:18.978Z,34.05
2018-03-24T21:10:46.338Z,34.83
2018-03-24T21:13:12.992Z,33.78
2018-03-24T21:15:39.491Z,33.00
2018-03-24T21:18:05.935Z,31.90
2018-03-24T21:20:32.531Z,34.78
2018-03-24T21:23:00.349Z,34.85
2018-03-24T21:25:27.507Z,33.45
2018-03-24T21:27:54.134Z,34.80
2018-03-24T21:30:20.742Z,36.17
2018-03-24T21:32:47.941Z,34.58
2018-03-24T21:35:14.577Z,35.28
2018-03-24T21:37:41.134Z,35.47
2018-03-24T21:40:08.394Z,35.88
2018-03-24T21:42:39.201Z,39.65
2018-03-24T21:45:05.718Z,39.78
2018-03-24T21:47:32.156Z,34.78
2018-03-24T21:49:59.450Z,42.58
2018-03-24T21:52:26.418Z,39.83
2018-03-24T21:54:53.066Z,37.97
2018-03-24T21:57:20.351Z,40.50
2018-03-24T21:59:47.647Z,39.08
2018-03-24T22:02:14.286Z,38.33
2018-03-24T22:04:41.478Z,39.33
2018-03-24T22:07:08.017Z,42.28
2018-03-24T22:09:35.292Z,45.40
2018-03-24T22:12:02.545Z,47.00
2018-03-24T22:14:28.997Z,43.78
2018-03-24T22:16:55.951Z,42.62
2018-03-24T22:19:22.368Z,39.42
2018-03-24T22:21:48.820Z,38.53
2018-03-24T22:24:15.277Z,42.83
2018-03-24T22:26:41.685Z,38.55
2018-03-24T22:29:08.130Z,40.60
2018-03-24T22:31:34.583Z,41.60
2018-03-24T22:34:01.041Z,39.65
2018-03-24T22:36:27.448Z,38.60
2018-03-24T22:38:53.907Z,41.10
2018-03-24T22:41:20.368Z,41.42
2018-03-24T22:43:46.808Z,42.85
2018-03-24T22:46:14.034Z,45.12
2018-03-24T22:48:40.460Z,42.47
2018-03-24T22:51:06.923Z,41.45
2018-03-24T22:53:33.976Z,44.97
2018-03-24T22:56:00.418Z,38.85
2018-03-24T22:58:27.567Z,40.88
2018-03-24T23:00:54.147Z,39.28
2018-03-24T23:03:21.333Z,40.05
2018-03-24T23:05:47.734Z,41.15
2018-03-24T23:08:15.661Z,41.60
2018-03-24T23:10:42.812Z,44.15
2018-03-24T23:13:09.236Z,45.88
2018-03-24T23:15:35.660Z,40.22
2018-03-24T23:18:02.089Z,43.87
2018-03-24T23:20:29.244Z,38.35
2018-03-24T23:22:55.782Z,40.12
2018-03-24T23:25:22.189Z,40.40
2018-03-24T23:27:49.352Z,43.38
2018-03-24T23:30:16.574Z,40.17
2018-03-24T23:32:43.001Z,44.60
2018-03-24T23:35:09.477Z,38.72
2018-03-24T23:37:35.896Z,41.92
2018-03-24T23:40:02.420Z,41.92
2018-03-24T23:42:28.863Z,39.75
2018-03-24T23:44:55.298Z,38.60
2018-03-24T23:47:21.762Z,44.72
2018-03-24T23:49:48.216Z,44.70
2018-03-24T23:52:14.741Z,40.53
2018-03-24T23:54:41.882Z,40.90
2018-03-24T23:57:08.291Z,39.05
2018-03-24T23:59:34.710Z,42.90
